createdAt,value
2022-11-25T00:03:07.676Z,100.00
2022-11-25T00:08:45.100Z,100.00
2022-11-25T00:11:36.243Z,100.00
2022-11-25T00:14:24.773Z,100.00
2022-11-25T00:17:12.906Z,100.00
2022-11-25T00:22:47.178Z,100.00
2022-11-25T00:25:38.007Z,100.00
2022-11-25T00:28:26.592Z,100.00
2022-11-25T00:33:56.704Z,100.00
2022-11-25T00:39:32.035Z,100.00
2022-11-25T00:45:12.181Z,100.00
2022-11-25T00:50:42.943Z,100.00
2022-11-25T00:56:24.143Z,100.00
2022-11-25T00:59:13.341Z,100.00
2022-11-25T01:02:02.139Z,100.00
2022-11-25T01:07:35.665Z,100.00
2022-11-25T01:10:24.012Z,100.00
2022-11-25T01:16:04.392Z,100.00
2022-11-25T01:18:53.343Z,100.00
2022-11-25T01:24:27.059Z,100.00
2022-11-25T01:30:05.148Z,100.00
2022-11-25T01:35:38.625Z,100.00
2022-11-25T01:38:27.213Z,100.00
2022-11-25T01:44:16.660Z,100.00
2022-11-25T01:47:07.637Z,100.00
2022-11-25T01:49:59.408Z,100.00
2022-11-25T01:55:35.631Z,100.00
2022-11-25T02:01:12.177Z,100.00
2022-11-25T02:06:46.599Z,100.00
2022-11-25T02:12:14.459Z,100.00
2022-11-25T02:15:03.390Z,100.00
2022-11-25T02:20:52.098Z,100.00
2022-11-25T02:23:43.268Z,100.00
2022-11-25T02:26:32.697Z,100.00
2022-11-25T02:29:21.203Z,100.00
2022-11-25T02:32:09.721Z,100.00
2022-11-25T02:34:58.253Z,100.00
2022-11-25T02:37:48.052Z,100.00
2022-11-25T02:40:40.607Z,100.00
2022-11-25T02:46:28.824Z,100.00
2022-11-25T02:51:59.483Z,100.00
2022-11-25T02:57:34.046Z,100.00
2022-11-25T03:00:22.868Z,100.00
2022-11-25T03:06:00.028Z,100.00
2022-11-25T03:08:50.254Z,100.00
2022-11-25T03:11:56.004Z,100.00
2022-11-25T03:14:45.130Z,100.00
2022-11-25T03:17:33.618Z,100.00
2022-11-25T03:23:10.931Z,100.00
2022-11-25T03:25:58.966Z,100.00
2022-11-25T03:31:37.341Z,100.00
2022-11-25T03:37:12.053Z,100.00
2022-11-25T03:43:01.537Z,99.80
2022-11-25T03:48:39.302Z,98.39
2022-11-25T03:51:27.885Z,96.96
2022-11-25T03:54:16.301Z,97.82
2022-11-25T03:59:54.091Z,97.31
2022-11-25T04:02:42.504Z,97.91
2022-11-25T04:05:31.084Z,97.74
2022-11-25T04:10:59.048Z,98.42
2022-11-25T04:13:47.477Z,98.73
2022-11-25T04:19:19.010Z,97.75
2022-11-25T04:25:13.184Z,97.36
2022-11-25T04:28:02.623Z,97.09
2022-11-25T04:33:47.176Z,95.78
2022-11-25T04:39:28.614Z,94.95
2022-11-25T04:42:33.008Z,94.75
2022-11-25T04:48:10.727Z,93.57
2022-11-25T04:53:48.750Z,92.75
2022-11-25T04:59:42.375Z,91.84
2022-11-25T05:05:20.292Z,91.41
2022-11-25T05:10:57.083Z,91.16
2022-11-25T05:13:44.961Z,90.49
2022-11-25T05:16:39.159Z,91.38
2022-11-25T05:19:27.531Z,91.92
2022-11-25T05:24:56.786Z,90.75
2022-11-25T05:27:44.793Z,91.72
2022-11-25T05:30:33.481Z,91.47
2022-11-25T05:33:25.160Z,91.83
2022-11-25T05:36:15.908Z,92.76
2022-11-25T05:41:54.765Z,92.77
2022-11-25T05:44:43.165Z,93.52
2022-11-25T05:50:20.937Z,94.27
2022-11-25T05:56:00.176Z,94.14
2022-11-25T05:58:50.519Z,93.55
2022-11-25T06:01:38.725Z,93.27
2022-11-25T06:07:18.335Z,93.14
2022-11-25T06:12:58.937Z,93.70
2022-11-25T06:15:48.129Z,93.94
2022-11-25T06:21:19.193Z,94.47
2022-11-25T06:24:16.332Z,94.50
2022-11-25T06:29:47.448Z,95.03
2022-11-25T06:32:37.573Z,95.16
2022-11-25T06:38:05.976Z,95.61
2022-11-25T06:40:59.160Z,95.47
2022-11-25T06:46:37.887Z,96.02
2022-11-25T06:49:28.497Z,96.21
2022-11-25T06:55:07.341Z,97.00
2022-11-25T07:00:38.809Z,97.25
2022-11-25T07:03:27.296Z,97.36
2022-11-25T07:06:16.652Z,97.32
2022-11-25T07:09:05.717Z,96.99
2022-11-25T07:14:45.101Z,94.38
2022-11-25T07:20:53.415Z,94.64
2022-11-25T07:26:36.867Z,93.94
2022-11-25T07:29:51.952Z,93.40
2022-11-25T07:35:08.834Z,93.14
2022-11-25T07:38:00.422Z,93.33
2022-11-25T07:43:38.768Z,93.24
2022-11-25T07:46:31.608Z,92.90
2022-11-25T07:52:04.780Z,92.55
2022-11-25T07:57:32.505Z,92.47
2022-11-25T08:03:07.138Z,91.93
2022-11-25T08:08:46.060Z,90.65
2022-11-25T08:14:16.406Z,90.45
2022-11-25T08:17:05.938Z,90.79
2022-11-25T08:22:47.528Z,91.57
2022-11-25T08:28:20.629Z,91.33
2022-11-25T08:34:02.749Z,89.24
2022-11-25T08:36:51.369Z,89.00
2022-11-25T08:42:25.787Z,84.88
2022-11-25T08:48:01.787Z,83.50
2022-11-25T08:53:40.006Z,83.47
2022-11-25T08:59:05.320Z,84.21
2022-11-25T09:04:39.735Z,83.89
2022-11-25T09:10:15.548Z,83.19
2022-11-25T09:15:44.351Z,84.46
2022-11-25T09:18:35.254Z,83.83
2022-11-25T09:24:21.739Z,81.22
2022-11-25T09:29:58.774Z,81.08
2022-11-25T09:35:35.517Z,79.71
2022-11-25T09:38:23.430Z,79.76
2022-11-25T09:44:23.360Z,79.29
2022-11-25T09:50:17.465Z,80.19
2022-11-25T09:55:55.934Z,82.46
2022-11-25T10:01:25.724Z,80.80
2022-11-25T10:04:18.475Z,81.31
2022-11-25T10:07:08.917Z,81.95
2022-11-25T10:12:48.015Z,80.48
2022-11-25T10:15:38.259Z,81.05
2022-11-25T10:21:12.079Z,82.17
2022-11-25T10:26:47.132Z,83.78
2022-11-25T10:32:23.426Z,84.40
2022-11-25T10:37:56.354Z,84.53
2022-11-25T10:43:31.911Z,85.00
2022-11-25T10:46:23.002Z,85.15
2022-11-25T10:57:21.533Z,87.90
2022-11-25T11:02:57.118Z,87.47
2022-11-25T11:08:34.103Z,87.53
2022-11-25T11:14:21.389Z,88.21
2022-11-25T11:20:18.388Z,88.25
2022-11-25T11:28:43.161Z,86.20
2022-11-25T11:34:37.496Z,86.77
2022-11-25T11:40:28.666Z,80.73
2022-11-25T11:43:37.438Z,81.47
2022-11-25T11:49:37.073Z,78.90
2022-11-25T11:55:24.589Z,80.18
2022-11-25T12:01:11.391Z,80.72
2022-11-25T12:04:02.003Z,80.19
2022-11-25T12:09:45.764Z,80.61
2022-11-25T12:15:31.858Z,79.33
2022-11-25T12:18:27.092Z,78.39
2022-11-25T12:24:06.191Z,80.59
2022-11-25T12:29:40.630Z,81.49
2022-11-25T12:32:56.527Z,80.91
2022-11-25T12:35:52.618Z,80.99
2022-11-25T12:41:37.629Z,80.04
2022-11-25T12:47:10.315Z,78.87
2022-11-25T12:55:41.760Z,80.58
2022-11-25T13:01:48.506Z,83.03
2022-11-25T13:05:32.865Z,83.47
2022-11-25T13:11:01.118Z,83.65
2022-11-25T13:16:35.089Z,85.48
2022-11-25T13:19:24.247Z,86.00
2022-11-25T13:25:15.395Z,88.57
2022-11-25T13:30:53.508Z,91.12
2022-11-25T13:39:38.937Z,92.46
2022-11-25T13:45:26.197Z,93.13
2022-11-25T13:54:07.884Z,93.49
2022-11-25T14:00:44.069Z,93.15
2022-11-25T14:06:59.575Z,95.12
2022-11-25T14:19:50.843Z,100.00
2022-11-25T14:25:06.679Z,100.00
2022-11-25T14:30:53.076Z,100.00
2022-11-25T14:36:37.091Z,100.00
2022-11-25T14:42:22.777Z,100.00
2022-11-25T14:48:27.503Z,100.00
2022-11-25T14:54:13.248Z,100.00
2022-11-25T15:00:28.341Z,100.00
2022-11-25T15:12:28.412Z,100.00
2022-11-25T15:18:03.417Z,100.00
2022-11-25T15:23:54.483Z,100.00
2022-11-25T15:29:37.443Z,100.00
2022-11-25T15:35:18.466Z,100.00
2022-11-25T15:41:41.770Z,100.00
2022-11-25T15:47:28.417Z,100.00
2022-11-25T15:53:33.318Z,100.00
2022-11-25T16:00:27.207Z,100.00
2022-11-25T16:03:24.277Z,100.00
2022-11-25T16:09:05.791Z,100.00
2022-11-25T16:11:53.813Z,100.00
2022-11-25T16:17:31.687Z,100.00
2022-11-25T16:20:22.436Z,100.00
2022-11-25T16:23:10.952Z,100.00
2022-11-25T16:26:05.438Z,100.00
2022-11-25T16:31:42.530Z,100.00
2022-11-25T16:34:31.027Z,100.00
2022-11-25T16:40:01.145Z,100.00
2022-11-25T16:48:30.415Z,100.00
2022-11-25T16:51:20.142Z,100.00
2022-11-25T16:56:56.729Z,100.00
2022-11-25T17:02:31.276Z,99.88
2022-11-25T17:08:04.988Z,98.91
2022-11-25T17:13:34.156Z,99.12
2022-11-25T17:19:02.281Z,99.73
2022-11-25T17:21:50.875Z,99.34
2022-11-25T17:27:28.819Z,98.91
2022-11-25T17:33:08.677Z,99.94
2022-11-25T17:38:43.414Z,99.47
2022-11-25T17:44:25.366Z,99.24
2022-11-25T17:49:59.908Z,98.81
2022-11-25T17:55:38.535Z,100.00
2022-11-25T17:58:27.840Z,98.80
2022-11-25T18:01:15.896Z,99.43
2022-11-25T18:06:50.739Z,97.82
2022-11-25T18:12:36.011Z,97.32
2022-11-25T18:18:16.127Z,98.29
2022-11-25T18:23:54.006Z,98.46
2022-11-25T18:29:32.132Z,97.16
2022-11-25T18:35:17.475Z,98.31
2022-11-25T18:40:54.149Z,97.64
2022-11-25T18:43:42.910Z,98.26
2022-11-25T18:49:16.468Z,98.32
2022-11-25T18:54:54.555Z,97.24
2022-11-25T18:57:45.126Z,96.79
2022-11-25T19:00:33.871Z,96.79
2022-11-25T19:06:15.212Z,96.54
2022-11-25T19:11:53.814Z,95.86
2022-11-25T19:17:27.342Z,95.91
2022-11-25T19:23:01.083Z,96.31
2022-11-25T19:25:48.024Z,96.65
2022-11-25T19:31:24.551Z,97.32
2022-11-25T19:37:11.730Z,97.75
2022-11-25T19:42:48.673Z,98.53
2022-11-25T19:45:37.120Z,98.64
2022-11-25T19:48:27.870Z,98.47
2022-11-25T19:51:16.459Z,99.32
2022-11-25T19:54:05.117Z,99.92
2022-11-25T19:59:39.386Z,100.00
2022-11-25T20:05:20.495Z,100.00
2022-11-25T20:08:10.489Z,99.61
2022-11-25T20:13:56.254Z,100.00
2022-11-25T20:19:31.282Z,99.51
2022-11-25T20:25:06.073Z,99.54
2022-11-25T20:27:56.946Z,99.39
2022-11-25T20:33:34.453Z,99.04
2022-11-25T20:39:17.318Z,99.61
2022-11-25T20:44:47.785Z,98.96
2022-11-25T20:47:36.089Z,98.79
2022-11-25T20:53:08.931Z,99.15
2022-11-25T20:58:49.221Z,99.33
2022-11-25T21:04:21.334Z,99.82
2022-11-25T21:07:14.721Z,100.00
2022-11-25T21:12:49.878Z,100.00
2022-11-25T21:15:39.369Z,100.00
2022-11-25T21:21:19.970Z,100.00
2022-11-25T21:24:19.568Z,100.00
2022-11-25T21:29:56.446Z,100.00
2022-11-25T21:35:48.903Z,100.00
2022-11-25T21:41:27.004Z,100.00
2022-11-25T21:44:19.507Z,100.00
2022-11-25T21:52:48.033Z,100.00
2022-11-25T21:58:29.598Z,100.00
2022-11-25T22:04:02.233Z,100.00
2022-11-25T22:09:39.062Z,100.00
2022-11-25T22:12:38.124Z,100.00
2022-11-25T22:21:00.034Z,100.00
2022-11-25T22:23:48.184Z,100.00
2022-11-25T22:26:36.432Z,100.00
2022-11-25T22:32:16.753Z,100.00
2022-11-25T22:37:55.619Z,100.00
2022-11-25T22:46:28.586Z,100.00
2022-11-25T22:49:32.305Z,100.00
2022-11-25T22:55:20.402Z,100.00
2022-11-25T23:00:54.608Z,100.00
2022-11-25T23:06:32.647Z,100.00
2022-11-25T23:09:21.485Z,100.00
2022-11-25T23:14:57.159Z,100.00
2022-11-25T23:17:50.238Z,100.00
2022-11-25T23:23:29.329Z,100.00
2022-11-25T23:28:58.652Z,100.00
2022-11-25T23:31:46.743Z,100.00
2022-11-25T23:40:07.294Z,100.00
2022-11-25T23:45:43.950Z,100.00
2022-11-25T23:51:33.254Z,100.00
2022-11-25T23:57:14.902Z,100.00
